»·PEaware :: N608CD KYKM-KPAE

N608CD :: KYKM-KPAE

FLIGHT INFORMATION

Flight Status: Arrived
Operator: Privately registered:
United States
More flights under this callsign
Pilot: Daniel L. (27195)
Aircraft: CESSNA T210 TURBO CENTURION
(T210)
More flights by this aircraft type
Origin: KYKM Yakima Air Term/Mcallister
United States
Destination: KPAE Paine Field/Snohomish Co.
United States
More flights between these airports :: More routes between these airports
Route: +KYKM W16 KPAE
File this flight plan on PilotEdge
Remarks:
Altitude:
(Current/Filed)
8,500ft
Speed:
(Current/Filed)
150kts
Departed: 20-Mar-20 06:01 PM
Arrived: 20-Mar-20 06:54 PM
Distance/Time
Traveled:
107nm/0:52
Distance/Time
To Go:
Arrived

Flight Plot

Page will automatically refresh every two minutes.


Map Options




Map Legend


Flown Route
Filed Route
Departure Airport
Arrival Airport
Navaid (VOR, NDB)
Fix

Horizontal Profiles

Position Reports

Time Latitude Longitude Heading Altitude Ground
Speed
20-Mar-20 17:47 46.569736 -120.540476 231 1069ft 0kts
20-Mar-20 17:48 46.569736 -120.540476 231 1069ft 0kts
20-Mar-20 17:49 46.569786 -120.540762 294 1069ft 3kts
20-Mar-20 17:51 46.569786 -120.540828 260 1070ft 0kts
20-Mar-20 17:52 46.569786 -120.540828 260 1070ft 0kts
20-Mar-20 17:53 46.569786 -120.540828 260 1070ft 0kts
20-Mar-20 17:54 46.569624 -120.540846 179 1069ft 6kts
20-Mar-20 17:55 46.568727 -120.539615 114 1066ft 0kts
20-Mar-20 17:56 46.569737 -120.536055 62 1061ft 11kts
20-Mar-20 17:57 46.570015 -120.535307 62 1060ft 0kts
20-Mar-20 17:58 46.570150 -120.534941 62 1059ft 2kts
20-Mar-20 17:59 46.570198 -120.534747 80 1059ft 0kts
20-Mar-20 18:00 46.569190 -120.534959 241 1058ft 0kts
20-Mar-20 18:01 46.562121 -120.558672 263 1687ft 96kts
20-Mar-20 18:02 46.586277 -120.576362 348 2865ft 107kts
20-Mar-20 18:03 46.612607 -120.596324 320 4034ft 114kts
20-Mar-20 18:04 46.639984 -120.622727 322 5099ft 120kts
20-Mar-20 18:05 46.667067 -120.651538 320 6158ft 122kts
20-Mar-20 18:06 46.694393 -120.681191 320 7184ft 124kts
20-Mar-20 18:07 46.722159 -120.711366 320 8181ft 125kts
20-Mar-20 18:08 46.753285 -120.745157 321 8468ft 153kts
20-Mar-20 18:08 46.782548 -120.776947 321 8465ft 159kts
20-Mar-20 18:10 46.823971 -120.822174 315 8493ft 157kts
20-Mar-20 18:11 46.857792 -120.859075 318 8491ft 146kts
20-Mar-20 18:11 46.884384 -120.888200 319 8491ft 140kts
20-Mar-20 18:12 46.915481 -120.922307 319 8488ft 139kts
20-Mar-20 18:13 46.946418 -120.956277 319 8490ft 139kts
20-Mar-20 18:15 46.982422 -120.995955 319 8489ft 139kts
20-Mar-20 18:15 47.008381 -121.024702 322 8501ft 141kts
20-Mar-20 18:16 47.041050 -121.060621 323 8545ft 151kts
20-Mar-20 18:17 47.075114 -121.098343 323 8544ft 154kts
20-Mar-20 18:18 47.108981 -121.135900 324 8545ft 155kts
20-Mar-20 18:19 47.141582 -121.171951 324 8545ft 155kts
20-Mar-20 18:20 47.175698 -121.209807 324 8545ft 155kts
20-Mar-20 18:21 47.209698 -121.247605 324 8545ft 155kts
20-Mar-20 18:22 47.243809 -121.285592 324 8545ft 155kts
20-Mar-20 18:23 47.277606 -121.323290 324 8545ft 155kts
20-Mar-20 18:24 47.311505 -121.361164 324 8545ft 155kts
20-Mar-20 18:25 47.345475 -121.399180 324 8545ft 155kts
20-Mar-20 18:26 47.379382 -121.437179 324 8518ft 157kts
20-Mar-20 18:27 47.413868 -121.475900 323 8435ft 156kts
20-Mar-20 18:28 47.447776 -121.514058 324 8435ft 155kts
20-Mar-20 18:29 47.481214 -121.551609 324 8033ft 145kts
20-Mar-20 18:30 47.511318 -121.585469 324 7329ft 134kts
20-Mar-20 18:31 47.539968 -121.617812 323 6657ft 136kts
20-Mar-20 18:32 47.569790 -121.651622 321 6483ft 139kts
20-Mar-20 18:33 47.598790 -121.684516 320 5708ft 141kts
20-Mar-20 18:34 47.627527 -121.723629 312 4688ft 145kts
20-Mar-20 18:35 47.652279 -121.762885 324 4457ft 128kts
20-Mar-20 18:36 47.682688 -121.781567 326 4465ft 122kts
20-Mar-20 18:37 47.711824 -121.812836 321 3832ft 149kts
20-Mar-20 18:38 47.741462 -121.846672 321 3486ft 138kts
20-Mar-20 18:39 47.767411 -121.876286 319 3485ft 124kts
20-Mar-20 18:40 47.791486 -121.903887 320 3489ft 121kts
20-Mar-20 18:41 47.814507 -121.930234 321 3192ft 117kts
20-Mar-20 18:42 47.836385 -121.955298 322 2980ft 102kts
20-Mar-20 18:43 47.854926 -121.976623 322 2999ft 102kts
20-Mar-20 18:44 47.873006 -122.005811 282 2890ft 123kts
20-Mar-20 18:45 47.878166 -122.049215 281 2307ft 125kts
20-Mar-20 18:46 47.883074 -122.089536 281 1983ft 108kts
20-Mar-20 18:47 47.887161 -122.122663 282 1992ft 101kts
20-Mar-20 18:48 47.888976 -122.160354 264 1988ft 114kts
20-Mar-20 18:49 47.889753 -122.197552 273 1918ft 95kts
20-Mar-20 18:50 47.883834 -122.231133 254 1766ft 99kts
20-Mar-20 18:51 47.875113 -122.261781 266 1362ft 85kts
20-Mar-20 18:52 47.890109 -122.271378 350 905ft 78kts
20-Mar-20 18:53 47.903762 -122.271641 1 608ft 19kts
20-Mar-20 18:54 47.905589 -122.272159 277 606ft 0kts
20-Mar-20 18:55 47.905876 -122.272844 357 605ft 10kts
20-Mar-20 18:56 47.905810 -122.272650 276 605ft 0kts
20-Mar-20 18:57 47.905810 -122.272650 276 605ft 0kts

Navigation Log

Ident Type
Flight plan parsing failed, navigation log unavailable